Impacts METAR Board
IDs:

KDFW - Dallas-Ft Worth Intl, TX, US

Updated at: 0100 UTC 31 May 2020
Potential Impact None Slight Moderate High
Time 30/13Z 30/14Z 30/15Z 30/16Z 30/17Z 30/18Z 30/19Z 30/20Z 30/21Z 30/22Z 30/23Z 31/00Z 31/01Z
Temp71 74 77 79 82 84 85 85 86 87 85 84 81
Dewpt57 55 56 58 59 60 57 57 57 58 57 56 58
Altim30.15 30.16 30.15 30.14 30.14 30.12 30.10 30.09 30.06 30.05 30.04 30.04 30.05
VIS10 10 10 10 10 10 10 10 10 10 10 10 10
CIG-- -- -- -- -- -- -- -- -- -- -- -- --
CoverFEWFEWFEWFEWFEWFEWFEWFEWFEWFEWFEWFEWFEW
FltCatVFRVFRVFRVFRVFRVFRVFRVFRVFRVFRVFRVFRVFR
WX--------------------------
WDir40609001000100120090120120100
WSpd4 7 4 4 5 4 10 9 5 8 8 7 7
WGst-- -- -- -- -- -- -- -- -- -- -- -- --
Raw hourly METARs
KDFW 301253Z 04004KT 10SM FEW300 22/14 A3015 RMK AO2 SLP202 T02170139 $
KDFW 301353Z 06007KT 10SM FEW300 23/13 A3016 RMK AO2 SLP205 T02330128 $
KDFW 301453Z 09004KT 10SM FEW300 25/13 A3015 RMK AO2 SLP201 T02500133 50002 $
KDFW 301553Z VRB04KT 10SM FEW300 26/14 A3014 RMK AO2 SLP199 T02610144 $
KDFW 301653Z 10005KT 10SM FEW040 FEW300 28/15 A3014 RMK AO2 SLP197 T02780150 $
KDFW 301753Z VRB04KT 10SM FEW055 FEW300 29/16 A3012 RMK AO2 SLP192 T02890156 10294 20189 58009 $
KDFW 301853Z 10010KT 10SM FEW065 FEW300 29/14 A3010 RMK AO2 SLP185 T02940139 $
KDFW 301953Z 12009KT 080V140 10SM FEW065 FEW300 29/14 A3009 RMK AO2 SLP180 T02940139 $
KDFW 302053Z VRB05KT 10SM FEW065 FEW300 30/14 A3006 RMK AO2 SLP172 T03000139 58020 $
KDFW 302153Z 09008KT 040V130 10SM FEW065 FEW300 31/14 A3005 RMK AO2 SLP168 T03060144 $
KDFW 302253Z 12008KT 10SM FEW065 FEW300 29/14 A3004 RMK AO2 SLP166 T02940139 $
KDFW 302353Z 12007KT 10SM FEW065 FEW300 29/13 A3004 RMK AO2 SLP165 T02890133 10306 20278 56008 $
KDFW 310053Z 10007KT 10SM FEW065 FEW300 27/14 A3005 RMK AO2 SLP169 T02720144 $



Page loaded:  01:22 UTC  |   06:22 PM Pacific  |   07:22 PM Mountain  |   08:22 PM Central  |   09:22 PM Eastern

 

ADVISORIES

FORECASTS

FORECASTS

OBSERVATIONS

USER TOOLS

ABOUT US